Vilas, South Dakota
Current Conditions -  °F | °C
As of 8:15 AM on Monday 20 Oct 2014 (Local Time) from KMDS Reporting Station
Clear Clear  
Wind Chill: 32°   Ceiling: Unl
Heat Index: 37°   Visibility: 10mi
Dew Point: 37°   Wind: 7mph
Humidity: 100%   Direction: 310°NW
Pressure: 30.08"   Gusts: NA
Location:  44.0529°N, 97.5161°W
Report Text: KMDS 201315Z AUTO 31006KT 10SM CLR 03/03 A3008 RMK AO2
Loading
Personal Weather Stations






























Interactive Weather Map
Tropical Storm Tracking
New forecast layout! Learn more

10-Day Weather Forecast

Advertisements
Track Severe Weather on mobile